Time;durP1;ratioP1;P1;durP2;ratioP2;P2;SDS_P1;SDS_P2;PMS_P1;PMS_P2;Temp;Humidity;BMP_temperature;BMP_pressure;BME280_temperature;BME280_humidity;BME280_pressure;Samples;Min_cycle;Max_cycle;Signal;HPM_P1;HPM_P2
2021/11/16 08:04:20;;;;;;;24.45;17.25;;;5.80;99.90;;;;;;7411722;19;20350;-80
2021/11/16 08:12:21;;;;;;;27.13;17.58;;;6.00;99.90;;;;;;7418703;19;20313;-81
2021/11/16 08:14:49;;;;;;;24.35;17.25;;;5.90;99.90;;;;;;7397742;19;20297;-81
2021/11/16 08:17:16;;;;;;;20.77;14.77;;;5.90;99.90;;;;;;7420474;19;20376;-80
2021/11/16 08:19:42;;;;;;;26.42;17.75;;;5.80;99.90;;;;;;7420171;19;20312;-80
2021/11/16 08:28:14;;;;;;;24.33;16.88;;;6.10;99.90;;;;;;7379089;19;20320;-81
2021/11/16 08:30:42;;;;;;;27.15;16.58;;;6.10;99.90;;;;;;7420980;19;20333;-80
2021/11/16 08:33:08;;;;;;;24.67;16.53;;;6.20;99.90;;;;;;7418175;19;20320;-79
2021/11/16 08:35:35;;;;;;;22.13;16.27;;;6.20;99.90;;;;;;7416920;19;20317;-80
2021/11/16 08:38:05;;;;;;;22.00;16.80;;;6.20;99.90;;;;;;7389568;19;20324;-80
2021/11/16 08:40:36;;;;;;;29.77;17.48;;;6.20;99.90;;;;;;7420217;19;20309;-81
2021/11/16 08:43:12;;;;;;;28.77;17.38;;;6.20;99.90;;;;;;7415262;19;20328;-80
2021/11/16 08:45:44;;;;;;;22.23;15.03;;;6.30;99.90;;;;;;7414361;19;20359;-80
2021/11/16 08:48:12;;;;;;;24.15;17.13;;;6.30;99.90;;;;;;7419608;19;20335;-79
2021/11/16 08:50:40;;;;;;;19.52;14.77;;;6.30;99.90;;;;;;7422106;19;20312;-80
2021/11/16 08:53:10;;;;;;;19.73;14.15;;;6.40;99.90;;;;;;7397043;19;20326;-80
2021/11/16 08:55:57;;;;;;;24.83;15.93;;;6.50;99.90;;;;;;7358385;19;20324;-80
2021/11/16 08:58:27;;;;;;;22.25;15.02;;;6.50;99.90;;;;;;7419502;19;20312;-80
2021/11/16 09:01:02;;;;;;;23.48;16.58;;;6.40;99.90;;;;;;7390463;19;20415;-81
2021/11/16 09:04:05;;;;;;;22.38;15.13;;;6.50;99.90;;;;;;7402588;19;20359;-80
2021/11/16 09:06:33;;;;;;;23.75;12.57;;;6.50;99.90;;;;;;7295021;19;2007534;-81
2021/11/16 12:45:13;;;;;;;16.20;11.47;;;7.40;99.90;;;;;;7339528;19;20373;-79
2021/11/16 12:48:55;;;;;;;15.43;11.00;;;7.40;99.90;;;;;;7423124;19;20347;-81
2021/11/16 19:09:04;;;;;;;27.45;18.98;;;5.50;99.90;;;;;;7363012;19;20320;-79
2021/11/16 19:11:36;;;;;;;24.13;18.15;;;5.30;99.90;;;;;;7324884;19;20678;-78
2021/11/16 19:14:14;;;;;;;25.92;16.77;;;5.20;99.90;;;;;;7363680;19;20341;-81
2021/11/16 19:16:51;;;;;;;25.25;18.40;;;5.10;99.90;;;;;;7326912;19;20390;-81
2021/11/16 19:19:57;;;;;;;18.15;14.77;;;5.00;99.90;;;;;;7329130;19;20328;-81
2021/11/16 19:22:48;;;;;;;20.80;14.43;;;5.00;99.90;;;;;;7165708;19;2004403;-81
2021/11/16 19:25:42;;;;;;;19.98;15.68;;;5.20;99.90;;;;;;7322003;19;20332;-81
2021/11/16 19:28:19;;;;;;;22.13;16.30;;;5.00;99.90;;;;;;7268739;19;2004421;-82
2021/11/16 19:32:25;;;;;;;20.75;15.35;;;5.10;99.90;;;;;;7230794;19;2004414;-82
2021/11/16 19:35:09;;;;;;;21.85;15.45;;;5.10;99.90;;;;;;7056468;19;2004284;-81
2021/11/16 19:37:59;;;;;;;18.63;13.43;;;5.00;99.90;;;;;;7240733;19;2004321;-81
2021/11/16 19:40:37;;;;;;;19.50;13.63;;;5.10;99.90;;;;;;7289554;19;20324;-82
2021/11/16 21:25:37;;;;;;;23.20;17.17;;;5.10;99.90;;;;;;7400030;19;20360;-82
2021/11/16 21:28:06;;;;;;;26.55;17.33;;;5.10;99.90;;;;;;7379495;19;20332;-82
2021/11/16 21:30:35;;;;;;;13.30;11.18;;;5.20;99.90;;;;;;7410300;19;20331;-80
2021/11/16 21:33:32;;;;;;;14.48;12.48;;;5.10;99.90;;;;;;7400266;19;20354;-80
2021/11/16 21:36:40;;;;;;;19.42;12.40;;;5.20;99.90;;;;;;7389772;19;20437;-80
2021/11/16 21:40:13;;;;;;;17.00;12.68;;;5.30;99.90;;;;;;7422169;19;20390;-80
2021/11/16 21:43:28;;;;;;;15.30;11.38;;;5.20;99.90;;;;;;7310914;19;2004332;-80
2021/11/16 21:46:46;;;;;;;22.00;13.98;;;5.30;99.90;;;;;;7419931;19;20374;-80
2021/11/16 21:50:12;;;;;;;19.83;13.55;;;5.20;99.90;;;;;;7418022;19;20373;-80
2021/11/16 21:53:48;;;;;;;13.70;10.63;;;5.30;99.90;;;;;;7150052;19;2004443;-80
2021/11/16 21:57:14;;;;;;;18.73;12.93;;;5.20;99.90;;;;;;7326592;19;20937;-79
2021/11/16 22:00:05;;;;;;;13.15;10.77;;;5.30;99.90;;;;;;7219157;19;20341;-79
2021/11/16 22:03:24;;;;;;;16.60;11.88;;;5.30;99.90;;;;;;7359640;19;20336;-80
2021/11/16 22:05:55;;;;;;;15.57;11.38;;;5.20;99.90;;;;;;7389169;19;20356;-79
2021/11/16 22:12:35;;;;;;;14.02;11.43;;;5.30;99.90;;;;;;7367669;19;20810;-79
2021/11/16 22:16:23;;;;;;;12.27;9.88;;;5.30;99.90;;;;;;7366251;19;20352;-80
2021/11/16 22:19:38;;;;;;;14.48;12.15;;;5.40;99.90;;;;;;7419201;19;20351;-80
2021/11/16 22:23:10;;;;;;;15.57;12.90;;;5.40;99.90;;;;;;7423226;19;20325;-80
2021/11/16 22:26:21;;;;;;;19.23;11.63;;;5.40;99.90;;;;;;7428628;19;20369;-80
2021/11/16 22:48:45;;;;;;;18.65;14.02;;;5.50;99.90;;;;;;7416795;19;20363;-82
